Time;durP1;ratioP1;P1;durP2;ratioP2;P2;SDS_P1;SDS_P2;PMS_P1;PMS_P2;Temp;Humidity;BMP_temperature;BMP_pressure;BME280_temperature;BME280_humidity;BME280_pressure;Samples;Min_cycle;Max_cycle;Signal;HPM_P1;HPM_P2
2024/03/14 00:00:18;;;;;;;30.20;13.10;;;;;;;9.84;37.44;100344.27;108055;1253;72719;-67
2024/03/14 00:02:46;;;;;;;27.90;12.30;;;;;;;9.89;37.28;100339.74;108093;1253;61215;-67
2024/03/14 00:05:14;;;;;;;45.90;14.40;;;;;;;9.77;37.59;100342.55;108113;1253;60137;-67
2024/03/14 00:07:41;;;;;;;32.30;13.50;;;;;;;9.79;37.54;100342.15;108087;1253;73479;-67
2024/03/14 00:10:09;;;;;;;33.90;14.50;;;;;;;9.96;37.23;100338.45;108087;1253;70311;-67
2024/03/14 00:12:36;;;;;;;51.70;25.60;;;;;;;10.15;37.03;100336.84;108086;1253;72659;-66
2024/03/14 00:15:04;;;;;;;31.10;14.90;;;;;;;10.09;37.01;100332.98;108053;1253;60026;-67
2024/03/14 00:17:32;;;;;;;56.50;17.40;;;;;;;10.09;37.13;100328.92;108122;1253;60197;-66
2024/03/14 00:20:00;;;;;;;38.50;14.80;;;;;;;10.14;36.99;100328.95;108160;1252;72896;-67
2024/03/14 00:22:27;;;;;;;30.40;13.10;;;;;;;10.16;37.03;100330.97;108193;1253;69062;-67
2024/03/14 00:24:53;;;;;;;37.50;14.70;;;;;;;10.03;37.24;100331.04;108114;1253;73355;-66
2024/03/14 00:27:20;;;;;;;35.40;14.70;;;;;;;9.96;37.37;100332.70;108174;1253;60840;-67
2024/03/14 00:29:47;;;;;;;33.50;15.60;;;;;;;9.92;37.32;100330.52;108134;1253;60402;-66
2024/03/14 00:32:14;;;;;;;35.80;14.80;;;;;;;9.91;37.40;100326.01;108164;1255;73632;-66
2024/03/14 00:34:41;;;;;;;40.20;15.90;;;;;;;10.18;36.99;100324.60;108124;1253;70907;-67
2024/03/14 00:37:08;;;;;;;37.80;15.00;;;;;;;10.33;36.76;100327.66;108144;1253;72098;-67
2024/03/14 00:39:36;;;;;;;42.30;16.70;;;;;;;10.23;36.90;100331.82;108147;1253;61179;-67
2024/03/14 00:42:03;;;;;;;38.60;14.50;;;;;;;10.13;37.06;100333.02;108114;1257;59535;-66
2024/03/14 00:44:30;;;;;;;40.40;16.40;;;;;;;10.07;37.11;100333.39;108121;1253;72862;-67
2024/03/14 00:46:57;;;;;;;40.70;16.60;;;;;;;9.88;37.35;100332.20;108145;1253;70290;-67
2024/03/14 00:49:24;;;;;;;42.80;17.20;;;;;;;9.69;37.72;100328.76;108122;1253;73105;-67
2024/03/14 00:51:50;;;;;;;43.50;16.50;;;;;;;9.59;37.89;100322.08;108070;1253;61568;-67
2024/03/14 00:54:17;;;;;;;45.80;17.50;;;;;;;9.62;37.94;100326.17;108113;1253;60317;-66
2024/03/14 00:56:46;;;;;;;49.90;20.20;;;;;;;9.48;38.04;100330.27;108268;1253;72799;-67
2024/03/14 00:59:13;;;;;;;55.80;24.40;;;;;;;9.52;38.07;100332.24;108082;1253;69294;-67
2024/03/14 01:01:46;;;;;;;112.30;50.70;;;;;;;9.57;38.07;100329.13;108102;1253;72569;-66
2024/03/14 01:04:13;;;;;;;53.50;19.20;;;;;;;9.59;37.94;100324.85;108100;1253;60976;-67
2024/03/14 01:06:40;;;;;;;35.50;16.40;;;;;;;9.49;38.13;100324.30;108185;1253;60344;-65
2024/03/14 01:09:07;;;;;;;39.70;16.70;;;;;;;9.54;38.09;100326.09;108060;1253;73046;-67
2024/03/14 01:11:34;;;;;;;39.70;17.00;;;;;;;9.60;38.05;100327.64;108151;1253;70255;-66
2024/03/14 01:14:01;;;;;;;35.60;14.70;;;;;;;9.59;37.86;100321.17;108144;1253;71569;-67
2024/03/14 01:16:29;;;;;;;36.20;16.10;;;;;;;9.54;38.07;100324.51;108175;1253;61215;-67
2024/03/14 01:18:56;;;;;;;43.40;16.70;;;;;;;9.46;38.19;100323.15;108143;1253;60327;-67
2024/03/14 01:21:22;;;;;;;31.70;15.30;;;;;;;9.46;38.21;100320.69;108188;1253;70880;-67
2024/03/14 01:23:49;;;;;;;35.90;14.50;;;;;;;9.48;38.29;100320.63;108136;1253;69494;-67
2024/03/14 01:26:16;;;;;;;33.20;14.20;;;;;;;9.63;38.04;100313.71;108133;1253;72393;-66
2024/03/14 01:28:43;;;;;;;37.70;15.90;;;;;;;9.70;37.86;100315.42;108081;1253;61182;-67
2024/03/14 01:31:11;;;;;;;35.60;15.50;;;;;;;9.83;37.73;100312.38;108131;1253;60141;-68
2024/03/14 01:33:38;;;;;;;33.80;14.30;;;;;;;9.87;37.55;100307.87;108115;1253;73048;-67
2024/03/14 01:36:05;;;;;;;40.30;16.50;;;;;;;9.59;38.01;100316.46;108140;1253;70312;-67
2024/03/14 01:38:34;;;;;;;41.60;16.70;;;;;;;9.54;38.10;100313.96;108109;1253;71986;-68
2024/03/14 01:41:00;;;;;;;40.60;17.60;;;;;;;9.46;38.20;100312.63;108148;1253;60871;-67
2024/03/14 01:43:27;;;;;;;59.20;21.80;;;;;;;9.40;38.44;100312.45;108158;1253;60141;-68
2024/03/14 01:45:54;;;;;;;63.10;22.70;;;;;;;9.07;38.97;100318.11;108176;1253;73058;-67
2024/03/14 01:48:20;;;;;;;59.50;21.20;;;;;;;9.03;39.22;100321.39;108130;1253;70759;-68
2024/03/14 01:50:47;;;;;;;67.90;24.80;;;;;;;9.10;39.00;100323.64;108107;1253;72523;-67
2024/03/14 01:53:14;;;;;;;71.20;30.10;;;;;;;9.37;38.74;100322.86;108113;1253;60356;-67
2024/03/14 01:55:42;;;;;;;52.20;20.40;;;;;;;9.48;38.58;100324.30;108117;1253;60168;-67
2024/03/14 01:58:09;;;;;;;52.80;19.60;;;;;;;9.41;38.73;100322.74;108173;1253;73559;-68
2024/03/14 02:00:43;;;;;;;49.20;18.70;;;;;;;9.49;38.64;100319.21;108116;1253;70470;-67
2024/03/14 02:03:13;;;;;;;37.80;16.30;;;;;;;9.50;38.50;100323.72;108122;1253;72569;-67
2024/03/14 02:05:44;;;;;;;46.60;17.70;;;;;;;9.66;38.23;100323.08;107985;1254;60294;-67
2024/03/14 02:08:11;;;;;;;40.50;17.10;;;;;;;9.80;38.06;100316.69;107933;1255;60094;-67
2024/03/14 02:10:39;;;;;;;42.70;17.40;;;;;;;9.56;38.31;100315.84;107926;1253;72524;-68
2024/03/14 02:13:06;;;;;;;41.40;17.50;;;;;;;9.65;38.26;100315.58;108123;1257;68826;-67
2024/03/14 02:15:33;;;;;;;46.80;18.60;;;;;;;9.61;38.42;100317.60;108071;1253;71460;-67
2024/03/14 02:18:00;;;;;;;36.20;16.00;;;;;;;9.55;38.61;100316.91;108066;1253;61000;-66
2024/03/14 02:20:27;;;;;;;39.50;15.50;;;;;;;9.40;38.76;100315.61;108052;1253;60346;-68
2024/03/14 02:22:54;;;;;;;36.60;15.90;;;;;;;9.12;39.20;100314.29;108099;1257;73868;-67
2024/03/14 02:25:22;;;;;;;41.10;16.70;;;;;;;9.00;39.51;100308.33;108107;1253;70329;-68
2024/03/14 02:27:50;;;;;;;61.50;20.50;;;;;;;8.93;39.73;100317.79;108034;1253;72580;-67
2024/03/14 02:30:17;;;;;;;29.50;13.30;;;;;;;8.97;39.72;100317.33;108061;1253;60451;-67
2024/03/14 02:32:45;;;;;;;52.00;17.10;;;;;;;8.97;39.51;100318.41;108085;1253;60438;-68
2024/03/14 02:35:12;;;;;;;30.80;13.90;;;;;;;8.92;39.66;100321.16;108038;1253;73903;-67
2024/03/14 02:37:39;;;;;;;32.00;13.10;;;;;;;9.00;39.53;100319.18;108083;1253;70460;-67
2024/03/14 02:40:07;;;;;;;37.20;14.70;;;;;;;8.95;39.64;100320.71;108097;1253;73262;-67
2024/03/14 02:42:35;;;;;;;37.80;14.80;;;;;;;8.94;39.66;100316.71;108125;1253;60444;-67
2024/03/14 02:45:03;;;;;;;29.00;13.70;;;;;;;8.97;39.79;100316.63;108080;1253;60670;-67
2024/03/14 02:47:30;;;;;;;30.60;13.50;;;;;;;8.83;39.98;100315.95;108044;1253;73781;-67
2024/03/14 02:49:57;;;;;;;38.20;15.10;;;;;;;8.75;40.16;100318.63;108084;1253;69211;-68
2024/03/14 02:52:26;;;;;;;36.50;14.70;;;;;;;8.90;40.07;100317.19;108103;1253;72609;-68
2024/03/14 02:54:53;;;;;;;43.30;17.00;;;;;;;8.92;40.05;100316.79;108037;1253;60828;-67
2024/03/14 02:57:19;;;;;;;52.00;21.30;;;;;;;8.94;39.99;100317.94;108107;1253;60163;-67
2024/03/14 02:59:46;;;;;;;47.50;19.60;;;;;;;9.29;39.48;100314.86;108195;1253;73190;-67
2024/03/14 03:02:15;;;;;;;30.30;12.90;;;;;;;9.26;39.56;100311.29;108128;1253;70687;-67
2024/03/14 03:04:44;;;;;;;41.60;14.80;;;;;;;9.16;39.67;100306.84;108192;1254;73264;-67
2024/03/14 03:07:12;;;;;;;31.70;13.00;;;;;;;9.28;39.60;100307.54;108132;1253;61263;-67
2024/03/14 03:09:39;;;;;;;29.90;11.50;;;;;;;9.29;39.55;100307.68;108164;1252;60411;-65
2024/03/14 03:12:07;;;;;;;23.30;11.50;;;;;;;9.40;39.41;100301.39;108242;1253;73699;-66
2024/03/14 03:14:36;;;;;;;29.10;11.60;;;;;;;9.28;39.53;100306.48;108261;1253;70866;-67
2024/03/14 03:17:05;;;;;;;32.20;12.10;;;;;;;9.42;39.30;100303.09;108151;1253;72687;-67
2024/03/14 03:19:31;;;;;;;27.90;11.20;;;;;;;9.49;39.20;100297.63;108159;1253;61213;-67
2024/03/14 03:21:58;;;;;;;30.10;12.40;;;;;;;9.48;39.25;100295.91;108166;1253;59591;-66
2024/03/14 03:24:25;;;;;;;36.40;13.60;;;;;;;9.51;39.11;100293.38;108163;1253;73721;-68
2024/03/14 03:26:51;;;;;;;33.80;12.70;;;;;;;9.61;39.02;100296.03;108163;1253;68900;-68
2024/03/14 03:29:19;;;;;;;35.80;13.90;;;;;;;9.57;38.97;100294.42;108223;1253;60398;-67
2024/03/14 03:31:46;;;;;;;26.20;12.20;;;;;;;9.62;39.01;100299.35;108167;1253;60427;-67
2024/03/14 03:34:13;;;;;;;32.30;13.10;;;;;;;9.61;38.86;100297.11;108198;1253;60320;-66
2024/03/14 03:36:39;;;;;;;33.20;14.60;;;;;;;9.42;39.24;100301.15;108178;1253;73654;-67
2024/03/14 03:39:12;;;;;;;39.40;15.30;;;;;;;9.37;39.32;100302.02;108147;1253;70295;-67
2024/03/14 03:41:39;;;;;;;32.50;15.10;;;;;;;9.38;39.27;100303.39;108144;1253;71249;-67
2024/03/14 03:44:05;;;;;;;34.10;13.90;;;;;;;9.38;39.32;100300.59;108185;1253;61012;-67
2024/03/14 03:46:33;;;;;;;38.70;14.00;;;;;;;9.38;39.33;100297.09;108004;1253;61788;-67
2024/03/14 03:48:59;;;;;;;38.30;15.60;;;;;;;9.39;39.29;100295.98;108023;1253;73637;-67
2024/03/14 03:51:26;;;;;;;35.80;13.40;;;;;;;9.45;39.35;100301.09;108133;1253;70324;-68
2024/03/14 03:53:53;;;;;;;37.10;14.30;;;;;;;9.48;39.03;100294.52;108162;1253;72960;-67
2024/03/14 03:56:23;;;;;;;49.20;17.20;;;;;;;9.59;39.01;100291.91;108130;1253;60151;-67
2024/03/14 03:58:50;;;;;;;42.80;16.70;;;;;;;9.63;38.96;100297.21;108124;1253;60343;-67
2024/03/14 04:01:22;;;;;;;44.00;18.70;;;;;;;9.68;38.85;100294.42;108130;1253;58736;-67
2024/03/14 04:03:51;;;;;;;32.90;14.80;;;;;;;9.65;38.99;100289.81;108170;1257;69425;-67
2024/03/14 04:06:17;;;;;;;25.80;12.10;;;;;;;9.79;38.77;100278.49;108142;1253;72631;-67
2024/03/14 04:08:46;;;;;;;24.40;11.60;;;;;;;9.93;38.51;100276.64;108182;1253;60367;-67
2024/03/14 04:11:15;;;;;;;25.40;12.00;;;;;;;9.95;38.54;100276.09;108226;1252;60749;-67
2024/03/14 04:13:41;;;;;;;23.30;10.60;;;;;;;10.02;38.37;100271.25;108165;1253;73710;-67
2024/03/14 04:16:12;;;;;;;24.00;11.20;;;;;;;10.05;38.45;100271.16;108145;1256;60178;-67
2024/03/14 04:18:39;;;;;;;21.20;9.90;;;;;;;9.97;38.47;100269.69;108211;1253;72598;-67
2024/03/14 04:21:07;;;;;;;23.00;10.50;;;;;;;10.01;38.36;100275.53;107971;1258;61045;-67
2024/03/14 04:23:35;;;;;;;22.10;11.80;;;;;;;9.99;38.37;100280.31;108007;1252;60330;-67
2024/03/14 04:26:02;;;;;;;32.00;12.50;;;;;;;9.79;38.51;100293.04;108169;1253;73799;-67
2024/03/14 04:28:29;;;;;;;28.60;13.00;;;;;;;9.76;38.52;100291.55;108142;1253;70252;-67
2024/03/14 04:30:56;;;;;;;32.90;13.70;;;;;;;9.86;38.35;100292.80;108105;1253;72999;-67
2024/03/14 04:33:23;;;;;;;23.80;12.10;;;;;;;9.99;38.16;100292.92;108097;1253;59720;-67
2024/03/14 04:35:50;;;;;;;24.70;12.20;;;;;;;10.00;38.10;100293.42;108117;1253;60102;-67
2024/03/14 04:38:18;;;;;;;25.40;11.40;;;;;;;10.14;37.85;100298.95;107997;1253;73714;-67
2024/03/14 04:40:45;;;;;;;25.20;11.80;;;;;;;10.12;37.91;100299.36;108154;1253;70168;-68
2024/03/14 04:43:13;;;;;;;27.80;12.30;;;;;;;10.09;37.87;100297.70;108115;1253;60459;-67
2024/03/14 04:45:40;;;;;;;27.10;11.40;;;;;;;9.96;38.11;100299.52;108124;1253;60423;-67
2024/03/14 04:48:07;;;;;;;28.90;12.20;;;;;;;10.03;38.07;100304.38;108116;1257;60289;-67
2024/03/14 04:50:35;;;;;;;26.80;11.50;;;;;;;9.95;38.10;100307.64;108138;1253;75432;-67
2024/03/14 04:53:02;;;;;;;23.50;13.10;;;;;;;9.87;38.26;100312.79;108111;1256;69625;-67
2024/03/14 04:55:29;;;;;;;36.40;14.10;;;;;;;10.07;37.96;100311.10;108122;1256;72675;-66
2024/03/14 04:57:56;;;;;;;26.60;12.50;;;;;;;10.09;37.94;100312.96;108157;1253;61007;-67
2024/03/14 05:00:25;;;;;;;26.10;12.60;;;;;;;10.29;37.68;100313.22;108130;1253;60434;-67
2024/03/14 05:02:55;;;;;;;26.70;12.00;;;;;;;10.44;37.45;100307.64;108181;1253;72745;-67
2024/03/14 05:05:22;;;;;;;29.60;12.00;;;;;;;10.54;37.43;100312.41;108134;1253;70344;-66
2024/03/14 05:07:50;;;;;;;22.10;11.60;;;;;;;10.55;37.32;100317.98;108083;1256;73237;-68
2024/03/14 05:10:20;;;;;;;21.50;11.30;;;;;;;10.45;37.51;100324.47;108169;1253;60372;-67
2024/03/14 05:12:48;;;;;;;22.40;11.40;;;;;;;10.33;37.72;100327.66;108102;1253;61021;-67
2024/03/14 05:15:15;;;;;;;32.50;12.60;;;;;;;10.14;37.97;100331.23;108104;1253;72506;-67
2024/03/14 05:17:45;;;;;;;25.80;12.40;;;;;;;10.05;38.16;100332.74;108054;1253;70133;-67
2024/03/14 05:20:13;;;;;;;26.10;12.10;;;;;;;10.01;38.33;100334.27;108119;1253;72731;-67
2024/03/14 05:22:39;;;;;;;29.60;12.90;;;;;;;10.10;38.30;100334.69;108011;1253;62031;-67
2024/03/14 05:25:06;;;;;;;37.80;14.80;;;;;;;9.98;38.32;100342.10;108110;1253;60395;-67
2024/03/14 05:27:33;;;;;;;30.40;13.90;;;;;;;9.96;38.39;100338.65;108130;1253;73632;-68
2024/03/14 05:30:00;;;;;;;29.40;13.20;;;;;;;10.00;38.26;100337.45;108141;1253;70183;-67
2024/03/14 05:32:32;;;;;;;31.10;13.30;;;;;;;9.86;38.58;100345.25;108116;1253;72424;-68
2024/03/14 05:34:59;;;;;;;29.40;15.70;;;;;;;9.79;38.72;100343.38;108094;1253;61462;-67
2024/03/14 05:37:29;;;;;;;33.90;13.70;;;;;;;9.96;38.69;100345.49;108169;1253;60352;-67
2024/03/14 05:39:56;;;;;;;30.20;13.80;;;;;;;9.97;39.11;100344.56;108183;1253;73912;-67
2024/03/14 05:42:23;;;;;;;22.40;11.60;;;;;;;9.86;39.74;100343.14;108097;1253;70361;-68
2024/03/14 05:44:50;;;;;;;26.00;12.80;;;;;;;9.98;39.62;100344.52;108092;1253;72672;-67
2024/03/14 05:47:16;;;;;;;24.00;12.40;;;;;;;9.68;40.31;100343.02;108088;1253;61049;-67
2024/03/14 05:49:43;;;;;;;26.50;12.90;;;;;;;9.56;40.83;100341.42;108102;1253;60171;-67
2024/03/14 05:52:10;;;;;;;29.10;13.40;;;;;;;9.88;40.69;100339.25;108077;1253;72179;-67
2024/03/14 05:54:37;;;;;;;22.40;11.10;;;;;;;10.16;40.43;100331.69;108096;1253;70215;-67
2024/03/14 05:57:03;;;;;;;32.70;15.50;;;;;;;10.25;40.54;100330.34;108080;1253;70341;-67
2024/03/14 05:59:30;;;;;;;40.10;17.00;;;;;;;10.52;40.55;100326.69;108102;1253;61156;-68
2024/03/14 06:01:57;;;;;;;40.30;17.30;;;;;;;10.65;40.53;100320.63;108163;1257;60295;-68
2024/03/14 06:04:24;;;;;;;35.80;15.50;;;;;;;10.53;40.90;100322.81;108113;1253;73894;-67
2024/03/14 06:06:51;;;;;;;33.30;14.90;;;;;;;10.38;41.45;100331.73;108094;1253;71374;-67
2024/03/14 06:09:18;;;;;;;34.10;15.50;;;;;;;10.39;41.72;100342.22;108089;1253;72508;-68
2024/03/14 06:11:45;;;;;;;29.40;13.80;;;;;;;10.41;41.73;100344.27;108012;1253;62229;-67
2024/03/14 06:14:14;;;;;;;28.90;11.90;;;;;;;10.33;41.98;100333.46;108087;1253;60341;-67
2024/03/14 06:16:41;;;;;;;27.80;12.70;;;;;;;10.37;41.98;100332.80;108137;1253;73720;-67
2024/03/14 06:19:08;;;;;;;31.90;13.80;;;;;;;10.53;41.91;100328.25;108092;1256;69943;-68
2024/03/14 06:21:40;;;;;;;26.20;12.20;;;;;;;10.24;42.55;100330.20;108103;1253;72610;-67
2024/03/14 06:24:09;;;;;;;25.00;13.10;;;;;;;10.32;42.54;100332.60;108138;1253;61446;-67
2024/03/14 06:26:39;;;;;;;26.60;13.60;;;;;;;10.04;43.03;100343.11;108142;1253;60407;-68
2024/03/14 06:29:06;;;;;;;28.60;13.30;;;;;;;10.09;43.16;100344.18;108155;1256;73961;-67
2024/03/14 06:31:33;;;;;;;31.70;14.70;;;;;;;10.08;43.20;100346.70;108148;1253;72109;-66
2024/03/14 06:34:00;;;;;;;37.90;15.00;;;;;;;10.11;43.52;100343.63;108113;1253;71486;-67
2024/03/14 06:36:27;;;;;;;30.50;15.60;;;;;;;10.20;43.40;100351.06;108113;1253;62836;-68
2024/03/14 06:38:55;;;;;;;38.70;15.00;;;;;;;10.31;43.20;100353.16;108138;1254;60415;-67
2024/03/14 06:41:22;;;;;;;37.10;17.80;;;;;;;10.57;42.89;100353.55;108124;1254;72858;-67
2024/03/14 06:43:49;;;;;;;32.40;15.70;;;;;;;10.58;42.92;100363.52;108156;1253;69548;-67
2024/03/14 06:46:16;;;;;;;27.90;13.70;;;;;;;10.39;43.13;100362.21;108142;1253;73520;-67
2024/03/14 06:48:43;;;;;;;30.50;15.20;;;;;;;10.11;43.76;100357.29;108123;1256;60784;-68
2024/03/14 06:51:10;;;;;;;33.40;16.00;;;;;;;9.91;44.27;100357.20;108165;1254;60421;-67
2024/03/14 06:53:38;;;;;;;35.80;16.30;;;;;;;9.89;44.52;100356.57;108150;1253;75027;-67
2024/03/14 06:56:08;;;;;;;31.60;15.40;;;;;;;10.05;44.21;100355.38;108134;1255;70406;-67
2024/03/14 06:58:35;;;;;;;32.30;15.90;;;;;;;9.97;44.50;100360.19;108259;1256;72631;-68
2024/03/14 07:01:02;;;;;;;34.70;16.70;;;;;;;9.95;44.41;100357.27;108187;1252;61166;-68
2024/03/14 07:03:29;;;;;;;36.90;18.30;;;;;;;9.91;44.02;100356.69;108204;1253;61292;-68
2024/03/14 07:05:57;;;;;;;31.40;14.90;;;;;;;9.81;44.10;100362.77;108217;1253;73114;-67
2024/03/14 07:08:26;;;;;;;37.20;17.10;;;;;;;10.04;43.61;100364.52;108204;1255;70390;-67
2024/03/14 07:10:53;;;;;;;31.80;16.50;;;;;;;10.12;43.57;100363.41;108178;1256;72855;-68
2024/03/14 07:13:20;;;;;;;34.00;16.90;;;;;;;10.16;43.66;100366.44;108173;1254;60997;-67
2024/03/14 07:15:47;;;;;;;34.90;17.40;;;;;;;10.22;43.61;100363.59;108243;1256;60342;-67
2024/03/14 07:18:16;;;;;;;39.70;18.20;;;;;;;10.26;43.75;100362.80;108191;1254;73273;-68
2024/03/14 07:20:44;;;;;;;36.30;18.50;;;;;;;10.35;43.97;100363.21;108174;1252;71505;-67
2024/03/14 07:23:13;;;;;;;37.40;18.50;;;;;;;10.59;43.79;100368.40;108279;1253;72681;-68
2024/03/14 07:25:42;;;;;;;34.80;17.80;;;;;;;10.81;43.33;100374.16;108202;1254;60469;-68
2024/03/14 07:28:09;;;;;;;44.10;21.50;;;;;;;10.89;43.12;100371.23;108293;1254;60335;-67
2024/03/14 07:30:36;;;;;;;34.50;17.70;;;;;;;10.94;43.09;100366.52;108246;1254;72671;-67
2024/03/14 07:33:03;;;;;;;37.90;19.20;;;;;;;10.86;42.97;100369.42;108183;1253;71791;-67
2024/03/14 07:35:30;;;;;;;41.80;18.70;;;;;;;10.75;43.03;100372.63;108189;1253;72519;-67
2024/03/14 07:37:58;;;;;;;33.30;17.60;;;;;;;10.63;43.31;100382.31;108171;1256;61140;-67
2024/03/14 07:40:32;;;;;;;41.90;19.30;;;;;;;10.67;43.07;100386.95;108237;1253;60901;-67
2024/03/14 07:43:01;;;;;;;33.20;17.50;;;;;;;10.77;43.06;100383.63;108068;1254;72048;-67
2024/03/14 07:45:29;;;;;;;38.20;17.80;;;;;;;10.94;43.09;100386.37;108197;1253;70275;-68
2024/03/14 07:47:55;;;;;;;35.70;18.10;;;;;;;11.21;43.08;100381.92;108171;1256;72036;-68
2024/03/14 07:50:22;;;;;;;31.10;16.30;;;;;;;11.62;42.86;100381.67;108151;1257;62498;-68
2024/03/14 07:52:49;;;;;;;34.70;17.20;;;;;;;12.22;42.37;100380.63;108153;1252;60302;-68
2024/03/14 07:55:16;;;;;;;36.20;18.30;;;;;;;12.72;42.08;100377.33;108159;1256;73835;-68
2024/03/14 07:57:43;;;;;;;34.90;17.20;;;;;;;13.32;40.25;100381.80;108017;1257;70734;-68
2024/03/14 08:00:15;;;;;;;40.50;18.70;;;;;;;13.93;38.84;100377.33;108166;1254;72788;-68
2024/03/14 08:02:42;;;;;;;39.00;16.90;;;;;;;14.44;38.22;100372.05;108165;1255;60292;-68
2024/03/14 08:05:09;;;;;;;33.60;16.40;;;;;;;14.84;37.07;100370.92;108222;1254;60320;-68
2024/03/14 08:07:38;;;;;;;36.00;17.10;;;;;;;15.08;36.25;100371.49;108196;1256;75110;-68
2024/03/14 08:10:08;;;;;;;29.50;15.40;;;;;;;15.48;36.06;100366.02;108257;1255;71477;-68
2024/03/14 08:12:34;;;;;;;32.60;16.20;;;;;;;16.08;36.09;100364.16;108186;1254;73316;-69
2024/03/14 08:15:30;;;;;;;38.50;17.80;;;;;;;17.03;34.54;100359.42;108199;1257;60397;-69
2024/03/14 08:17:52;;;;;;;30.70;16.30;;;;;;;18.01;33.19;100357.96;108174;1257;60409;-69
2024/03/14 08:20:24;;;;;;;37.30;16.00;;;;;;;18.94;31.75;100346.14;108200;1255;73866;-69
2024/03/14 08:22:52;;;;;;;40.70;15.80;;;;;;;19.77;30.26;100343.91;108331;1253;71705;-68
2024/03/14 08:25:19;;;;;;;97.50;41.50;;;;;;;20.45;27.91;100345.52;108292;1257;71158;-69
2024/03/14 08:27:47;;;;;;;28.40;13.20;;;;;;;20.67;26.30;100350.84;108179;1256;60513;-68
2024/03/14 08:30:14;;;;;;;49.10;24.10;;;;;;;20.25;26.06;100349.89;108134;1254;60419;-68
2024/03/14 08:32:42;;;;;;;23.40;11.90;;;;;;;20.02;25.95;100351.94;108168;1255;74943;-68
2024/03/14 08:35:10;;;;;;;19.40;9.70;;;;;;;19.54;25.81;100353.52;108187;1252;70435;-68
2024/03/14 08:37:37;;;;;;;20.50;9.60;;;;;;;18.92;25.81;100355.90;108224;1254;71733;-68
2024/03/14 08:40:05;;;;;;;18.30;9.40;;;;;;;18.66;26.51;100352.28;108175;1252;60423;-68
2024/03/14 08:42:33;;;;;;;18.90;9.30;;;;;;;18.28;26.98;100348.95;108188;1254;61567;-67
2024/03/14 08:45:13;;;;;;;27.90;10.70;;;;;;;18.18;27.00;100354.38;108223;1253;73861;-68
2024/03/14 08:47:41;;;;;;;19.80;11.00;;;;;;;17.78;27.06;100355.54;108192;1254;70838;-68
2024/03/14 08:50:09;;;;;;;15.30;8.80;;;;;;;17.33;26.84;100357.27;108224;1253;72570;-66
2024/03/14 08:52:37;;;;;;;22.10;10.00;;;;;;;16.72;27.36;100352.70;108157;1254;60501;-68
2024/03/14 08:55:23;;;;;;;15.80;9.20;;;;;;;16.43;27.90;100351.37;108148;1257;61599;-68
2024/03/14 08:57:51;;;;;;;15.90;9.50;;;;;;;15.92;27.92;100353.92;108173;1254;72925;-68
2024/03/14 09:00:21;;;;;;;30.60;13.20;;;;;;;15.58;28.74;100360.35;108200;1255;70409;-67
2024/03/14 09:02:49;;;;;;;37.00;13.60;;;;;;;15.36;29.22;100358.34;108159;1254;71182;-67
2024/03/14 09:05:16;;;;;;;31.00;12.70;;;;;;;15.07;29.84;100364.31;108192;1253;60234;-68
2024/03/14 09:07:45;;;;;;;23.30;10.50;;;;;;;14.87;29.90;100362.30;108240;1253;60419;-67
2024/03/14 09:10:45;;;;;;;29.20;12.10;;;;;;;14.83;30.07;100364.45;108174;1256;75111;-67
2024/03/14 09:13:07;;;;;;;20.40;10.80;;;;;;;14.78;30.18;100368.77;108148;1255;70369;-67
2024/03/14 09:15:33;;;;;;;19.20;9.80;;;;;;;14.73;30.66;100366.91;108178;1254;71096;-67
2024/03/14 09:18:00;;;;;;;25.90;10.20;;;;;;;14.62;30.42;100366.93;108177;1254;60312;-67
2024/03/14 09:20:28;;;;;;;20.60;9.90;;;;;;;14.48;30.63;100364.58;108118;1254;60466;-68
2024/03/14 09:22:55;;;;;;;21.80;10.30;;;;;;;14.35;30.95;100368.94;108189;1254;73878;-67
2024/03/14 09:25:23;;;;;;;18.90;10.70;;;;;;;14.01;31.08;100373.95;108129;1254;68809;-67
2024/03/14 09:27:52;;;;;;;19.90;10.30;;;;;;;13.99;31.00;100379.11;108269;1254;73882;-67
2024/03/14 09:30:18;;;;;;;26.80;11.00;;;;;;;13.81;31.20;100383.52;108163;1254;60512;-67
2024/03/14 09:32:48;;;;;;;25.50;11.30;;;;;;;13.96;31.33;100376.63;108167;1255;60414;-68
2024/03/14 09:35:25;;;;;;;17.90;9.90;;;;;;;14.15;31.64;100379.98;108108;1254;72732;-67
2024/03/14 09:37:55;;;;;;;27.00;11.80;;;;;;;14.32;31.21;100375.23;108199;1253;69959;-67
2024/03/14 09:40:22;;;;;;;24.90;11.90;;;;;;;14.22;30.81;100378.05;108139;1257;72942;-67
2024/03/14 09:43:00;;;;;;;38.00;15.00;;;;;;;14.07;30.77;100370.80;108045;1252;59109;-67
2024/03/14 09:45:30;;;;;;;18.60;10.00;;;;;;;14.12;30.52;100372.55;108168;1254;60791;-68
2024/03/14 09:47:57;;;;;;;18.20;8.90;;;;;;;14.12;30.55;100370.96;108067;1254;75122;-67
2024/03/14 09:50:26;;;;;;;36.90;12.60;;;;;;;14.06;30.34;100369.44;107954;1254;69429;-67
2024/03/14 09:52:53;;;;;;;21.80;10.20;;;;;;;14.12;30.48;100368.98;108205;1253;71944;-67
2024/03/14 09:55:22;;;;;;;18.50;10.30;;;;;;;14.20;30.57;100371.24;108176;1253;59566;-67
2024/03/14 09:57:53;;;;;;;36.90;13.90;;;;;;;14.23;30.43;100369.17;107902;1254;138288;-68
2024/03/14 10:01:40;;;;;;;18.60;10.50;;;;;;;13.07;32.26;100370.39;105307;1287;600760;-68
2024/03/14 10:04:07;;;;;;;20.90;10.20;;;;;;;13.89;30.88;100364.41;107437;1263;59489;-68
2024/03/14 10:06:40;;;;;;;19.40;10.10;;;;;;;14.13;30.82;100367.20;107266;1263;59077;-68
2024/03/14 10:09:11;;;;;;;21.80;11.10;;;;;;;14.23;30.66;100359.43;108160;1253;73641;-67
2024/03/14 10:11:55;;;;;;;23.10;10.10;;;;;;;14.40;30.31;100361.27;108147;1254;71244;-68
2024/03/14 10:14:23;;;;;;;21.40;10.60;;;;;;;14.51;29.84;100361.27;108119;1251;186254;-68
2024/03/14 10:16:50;;;;;;;21.60;10.10;;;;;;;14.46;29.78;100359.02;108309;1251;59155;-68
2024/03/14 10:19:18;;;;;;;20.90;12.40;;;;;;;14.45;29.84;100361.54;108323;1249;60760;-67
2024/03/14 10:21:45;;;;;;;27.20;11.30;;;;;;;14.35;29.61;100361.50;108332;1251;71288;-68
2024/03/14 10:24:16;;;;;;;21.50;10.60;;;;;;;14.32;29.69;100361.66;108328;1251;69267;-67
2024/03/14 10:26:47;;;;;;;19.60;9.00;;;;;;;14.20;30.15;100360.32;108317;1251;73052;-69
2024/03/14 10:29:15;;;;;;;23.00;10.20;;;;;;;14.11;30.31;100360.04;108322;1252;59116;-67
2024/03/14 10:31:43;;;;;;;21.80;10.00;;;;;;;14.02;30.73;100365.39;108230;1250;60771;-68
2024/03/14 10:34:10;;;;;;;13.30;8.40;;;;;;;14.18;30.59;100364.31;108261;1251;73090;-68
2024/03/14 10:36:41;;;;;;;15.70;9.30;;;;;;;14.20;30.55;100362.05;108098;1251;70717;-68
2024/03/14 10:39:18;;;;;;;17.60;9.50;;;;;;;14.35;30.32;100363.45;108270;1251;72756;-68
2024/03/14 10:41:51;;;;;;;19.20;10.20;;;;;;;14.35;30.06;100363.98;108118;1251;59141;-68
2024/03/14 10:44:19;;;;;;;22.40;12.00;;;;;;;14.46;30.01;100367.71;108210;1251;59411;-68
2024/03/14 10:46:51;;;;;;;19.80;9.80;;;;;;;14.51;30.05;100364.64;108107;1251;73166;-68
2024/03/14 10:49:20;;;;;;;14.50;9.30;;;;;;;14.55;29.89;100357.55;108129;1254;70494;-68
2024/03/14 10:51:49;;;;;;;19.10;10.00;;;;;;;14.48;30.24;100358.39;108222;1254;72825;-68
2024/03/14 10:54:21;;;;;;;26.10;10.90;;;;;;;14.44;30.24;100356.31;108158;1252;59481;-68
2024/03/14 10:56:49;;;;;;;22.70;11.30;;;;;;;14.57;30.14;100352.68;108090;1253;59151;-68
2024/03/14 10:59:19;;;;;;;18.10;9.60;;;;;;;14.64;30.12;100357.66;108187;1254;72584;-68
2024/03/14 11:01:56;;;;;;;23.50;10.10;;;;;;;14.64;29.85;100355.70;108232;1253;70743;-68
2024/03/14 11:04:25;;;;;;;18.20;10.00;;;;;;;14.49;29.96;100359.80;108242;1254;74461;-68
2024/03/14 11:06:54;;;;;;;23.60;9.80;;;;;;;14.50;30.09;100351.80;108186;1251;59487;-68
2024/03/14 11:09:24;;;;;;;17.40;9.80;;;;;;;14.68;29.97;100353.73;108228;1253;59432;-67